createdAt,value
2018-03-28T00:01:15.825Z,16.50
2018-03-28T00:03:44.683Z,17.67
2018-03-28T00:06:14.486Z,17.33
2018-03-28T00:08:43.342Z,15.53
2018-03-28T00:11:12.198Z,17.00
2018-03-28T00:13:41.091Z,15.40
2018-03-28T00:16:10.998Z,17.57
2018-03-28T00:18:39.885Z,19.33
2018-03-28T00:21:08.859Z,19.20
2018-03-28T00:23:37.710Z,20.60
2018-03-28T00:26:07.186Z,20.77
2018-03-28T00:28:36.050Z,21.03
2018-03-28T00:31:04.911Z,20.17
2018-03-28T00:33:33.829Z,20.43
2018-03-28T00:36:02.670Z,18.17
2018-03-28T00:38:31.533Z,20.73
2018-03-28T00:41:00.740Z,21.37
2018-03-28T00:43:29.615Z,23.40
2018-03-28T00:45:58.419Z,21.87
2018-03-28T00:48:27.338Z,23.47
2018-03-28T00:50:56.174Z,21.47
2018-03-28T00:53:25.072Z,22.10
2018-03-28T00:55:53.929Z,22.90
2018-03-28T00:58:22.783Z,22.30
2018-03-28T01:00:51.678Z,22.73
2018-03-28T01:03:20.598Z,21.37
2018-03-28T01:05:49.454Z,18.53
2018-03-28T01:08:18.489Z,19.63
2018-03-28T01:10:47.349Z,18.40
2018-03-28T01:13:18.168Z,18.37
2018-03-28T01:15:47.076Z,18.80
2018-03-28T01:18:16.411Z,18.83
2018-03-28T01:20:45.251Z,16.10
2018-03-28T01:23:14.131Z,15.50
2018-03-28T01:25:42.986Z,16.80
2018-03-28T01:28:12.231Z,15.10
2018-03-28T01:30:41.083Z,14.03
2018-03-28T01:33:09.950Z,14.23
2018-03-28T01:35:38.825Z,16.50
2018-03-28T01:38:07.683Z,14.63
2018-03-28T01:40:36.553Z,16.37
2018-03-28T01:43:05.574Z,15.50
2018-03-28T01:45:34.435Z,15.07
2018-03-28T01:48:03.287Z,17.67
2018-03-28T01:50:32.662Z,19.43
2018-03-28T01:53:01.524Z,18.43
2018-03-28T01:55:30.639Z,17.73
2018-03-28T01:57:59.603Z,19.70
2018-03-28T02:00:28.475Z,19.20
2018-03-28T02:02:57.353Z,23.03
2018-03-28T02:05:26.229Z,20.70
2018-03-28T02:07:55.653Z,18.93
2018-03-28T02:10:24.514Z,19.43
2018-03-28T02:12:53.369Z,20.57
2018-03-28T02:15:22.264Z,18.73
2018-03-28T02:17:51.118Z,20.10
2018-03-28T02:20:21.091Z,24.00
2018-03-28T02:22:50.103Z,23.60
2018-03-28T02:25:18.957Z,23.23
2018-03-28T02:27:47.814Z,24.47
2018-03-28T02:30:16.723Z,23.97
2018-03-28T02:32:45.689Z,26.03
2018-03-28T02:35:14.534Z,23.63
2018-03-28T02:37:43.443Z,23.00
2018-03-28T02:40:12.299Z,21.07
2018-03-28T02:42:41.154Z,19.73
2018-03-28T02:45:10.729Z,18.93
2018-03-28T02:47:39.575Z,18.97
2018-03-28T02:50:08.445Z,16.50
2018-03-28T02:52:37.355Z,16.27
2018-03-28T02:55:06.175Z,17.17
2018-03-28T02:57:36.263Z,15.03
2018-03-28T03:00:05.123Z,15.57
2018-03-28T03:02:34.036Z,15.53
2018-03-28T03:05:03.102Z,16.67
2018-03-28T03:07:31.908Z,24.83
2018-03-28T03:10:00.774Z,23.13
2018-03-28T03:12:29.639Z,23.53
2018-03-28T03:14:59.165Z,24.57
2018-03-28T03:17:28.018Z,19.10
2018-03-28T03:19:56.896Z,17.93
2018-03-28T03:22:26.976Z,21.90
2018-03-28T03:24:55.837Z,14.10
2018-03-28T03:27:24.675Z,15.37
2018-03-28T03:29:53.670Z,12.93
2018-03-28T03:32:22.515Z,14.10
2018-03-28T03:34:51.371Z,16.83
2018-03-28T03:37:20.505Z,15.40
2018-03-28T03:39:49.374Z,14.37
2018-03-28T03:42:18.414Z,17.57
2018-03-28T03:44:47.306Z,22.67
2018-03-28T03:47:16.235Z,21.37
2018-03-28T03:49:45.088Z,21.50
2018-03-28T03:52:15.195Z,24.83
2018-03-28T03:54:44.200Z,24.67
2018-03-28T03:57:13.066Z,22.83
2018-03-28T03:59:41.928Z,27.10
2018-03-28T04:02:11.270Z,22.67
2018-03-28T04:04:40.131Z,18.53
2018-03-28T04:07:08.990Z,21.17
2018-03-28T04:09:38.662Z,20.10
2018-03-28T04:12:07.614Z,17.70
2018-03-28T04:14:36.738Z,18.40
2018-03-28T04:17:05.671Z,15.17
2018-03-28T04:19:34.718Z,15.47
2018-03-28T04:22:03.607Z,16.77
2018-03-28T04:24:34.954Z,17.60
2018-03-28T04:27:04.730Z,17.47
2018-03-28T04:29:33.590Z,17.27
2018-03-28T04:32:02.471Z,20.43
2018-03-28T04:34:31.399Z,21.83
2018-03-28T04:37:00.218Z,23.03
2018-03-28T04:39:29.249Z,25.43
2018-03-28T04:41:58.139Z,23.40
2018-03-28T04:44:27.246Z,26.57
2018-03-28T04:46:56.078Z,25.43
2018-03-28T04:49:25.115Z,23.93
2018-03-28T04:51:53.967Z,24.43
2018-03-28T04:54:22.819Z,24.70
2018-03-28T04:56:51.954Z,25.57
2018-03-28T04:59:20.813Z,24.00
2018-03-28T05:01:49.666Z,24.27
2018-03-28T05:04:18.798Z,22.97
2018-03-28T05:06:47.922Z,21.53
2018-03-28T05:09:16.918Z,20.60
2018-03-28T05:11:45.806Z,15.47
2018-03-28T05:14:14.860Z,15.10
2018-03-28T05:16:43.690Z,14.40
2018-03-28T05:19:12.607Z,10.00
2018-03-28T05:21:41.636Z,10.83
2018-03-28T05:24:10.478Z,10.87
2018-03-28T05:26:40.648Z,8.77
2018-03-28T05:29:09.675Z,9.67
2018-03-28T05:31:39.237Z,9.60
2018-03-28T05:34:08.166Z,12.03
2018-03-28T05:36:37.018Z,11.73
2018-03-28T05:39:05.885Z,10.93
2018-03-28T05:41:34.740Z,7.07
2018-03-28T05:44:03.652Z,8.77
2018-03-28T05:46:32.502Z,7.47
2018-03-28T05:49:01.366Z,8.10
2018-03-28T05:51:30.248Z,7.53
2018-03-28T05:53:59.095Z,8.80
2018-03-28T05:56:28.248Z,9.93
2018-03-28T05:58:57.098Z,7.17
2018-03-28T06:01:25.948Z,12.33
2018-03-28T06:03:54.827Z,10.67
2018-03-28T06:06:23.688Z,8.17
2018-03-28T06:08:52.727Z,7.07
2018-03-28T06:11:21.785Z,7.13
2018-03-28T06:13:53.354Z,9.37
2018-03-28T06:16:22.240Z,8.47
2018-03-28T06:18:51.082Z,8.33
2018-03-28T06:21:20.132Z,8.07
2018-03-28T06:23:48.974Z,7.53
2018-03-28T06:26:17.927Z,7.00
2018-03-28T06:28:46.906Z,7.57
2018-03-28T06:31:15.837Z,10.90
2018-03-28T06:33:45.111Z,10.73
2018-03-28T06:36:14.236Z,10.40
2018-03-28T06:38:43.034Z,8.23
2018-03-28T06:41:11.886Z,9.40
2018-03-28T06:43:40.792Z,10.57
2018-03-28T06:46:09.642Z,7.70
2018-03-28T06:48:38.543Z,11.23
2018-03-28T06:51:07.400Z,8.77
2018-03-28T06:53:36.308Z,9.57
2018-03-28T06:56:05.191Z,12.50
2018-03-28T06:58:34.043Z,8.10
2018-03-28T07:01:02.923Z,12.93
2018-03-28T07:03:32.090Z,9.00
2018-03-28T07:06:00.979Z,7.03
2018-03-28T07:08:29.802Z,7.23
2018-03-28T07:10:59.686Z,7.73
2018-03-28T07:13:28.539Z,9.90
2018-03-28T07:15:58.808Z,9.57
2018-03-28T07:18:27.666Z,10.23
2018-03-28T07:20:56.524Z,8.07
2018-03-28T07:23:25.402Z,9.17
2018-03-28T07:25:54.254Z,9.37
2018-03-28T07:28:23.461Z,10.40
2018-03-28T07:30:52.312Z,7.90
2018-03-28T07:33:21.215Z,11.03
2018-03-28T07:35:50.134Z,6.47
2018-03-28T07:38:18.982Z,9.70
2018-03-28T07:40:47.867Z,10.07
2018-03-28T07:43:16.711Z,10.53
2018-03-28T07:45:46.930Z,11.87
2018-03-28T07:48:15.773Z,7.33
2018-03-28T07:50:44.635Z,9.03
2018-03-28T07:53:13.514Z,9.30
2018-03-28T07:55:42.388Z,11.87
2018-03-28T07:58:13.647Z,10.90
2018-03-28T08:00:42.492Z,12.67
2018-03-28T08:03:11.352Z,10.97
2018-03-28T08:05:40.422Z,11.37
2018-03-28T08:08:09.283Z,11.80
2018-03-28T08:10:38.161Z,11.13
2018-03-28T08:13:07.147Z,6.83
2018-03-28T08:15:36.037Z,11.27
2018-03-28T08:18:05.285Z,7.87
2018-03-28T08:20:34.472Z,13.30
2018-03-28T08:23:03.331Z,10.93
2018-03-28T08:25:32.198Z,6.70
2018-03-28T08:28:01.071Z,12.07
2018-03-28T08:30:29.940Z,9.47
2018-03-28T08:32:58.842Z,8.20
2018-03-28T08:35:27.681Z,11.73
2018-03-28T08:37:56.559Z,9.17
2018-03-28T08:40:28.578Z,12.93
2018-03-28T08:42:57.561Z,9.97
2018-03-28T08:45:26.427Z,7.77
2018-03-28T08:47:55.330Z,9.97
2018-03-28T08:50:24.188Z,10.10
2018-03-28T08:52:53.081Z,8.40
2018-03-28T08:55:21.930Z,8.07
2018-03-28T08:57:51.633Z,8.27
2018-03-28T09:00:20.487Z,11.20
2018-03-28T09:02:49.330Z,11.07
2018-03-28T09:05:18.255Z,11.40
2018-03-28T09:07:47.118Z,10.97
2018-03-28T09:10:15.975Z,8.47
2018-03-28T09:12:44.883Z,7.07
2018-03-28T09:15:13.751Z,8.63
2018-03-28T09:17:42.797Z,11.10
2018-03-28T09:20:12.795Z,8.37
2018-03-28T09:22:41.659Z,9.77
2018-03-28T09:25:10.550Z,7.00
2018-03-28T09:27:39.411Z,5.50
2018-03-28T09:30:08.275Z,6.53
2018-03-28T09:32:37.916Z,7.30
2018-03-28T09:35:06.747Z,7.00
2018-03-28T09:37:35.613Z,7.83
2018-03-28T09:40:04.727Z,8.17
2018-03-28T09:42:33.655Z,11.27
2018-03-28T09:45:02.577Z,8.33
2018-03-28T09:47:31.820Z,6.93
2018-03-28T09:50:00.671Z,8.47
2018-03-28T09:52:29.544Z,6.40
2018-03-28T09:54:58.436Z,10.20
2018-03-28T09:57:27.325Z,8.13
2018-03-28T09:59:56.182Z,9.73
2018-03-28T10:02:31.066Z,7.70
2018-03-28T10:05:00.285Z,7.53
2018-03-28T10:07:29.152Z,8.37
2018-03-28T10:09:57.998Z,11.00
2018-03-28T10:12:26.888Z,7.40
2018-03-28T10:14:55.751Z,6.80
2018-03-28T10:17:24.663Z,8.07
2018-03-28T10:19:53.517Z,6.07
2018-03-28T10:22:22.955Z,8.73
2018-03-28T10:24:52.052Z,10.20
2018-03-28T10:27:20.940Z,10.43
2018-03-28T10:29:49.843Z,7.23
2018-03-28T10:32:18.733Z,6.90
2018-03-28T10:34:47.583Z,8.53
2018-03-28T10:37:16.711Z,7.03
2018-03-28T10:39:45.566Z,8.07
2018-03-28T10:42:14.419Z,8.17
2018-03-28T10:44:43.290Z,7.47
2018-03-28T10:47:12.143Z,7.70
2018-03-28T10:49:41.107Z,7.60
2018-03-28T10:52:09.954Z,9.27
2018-03-28T10:54:38.815Z,8.80
2018-03-28T10:57:07.712Z,7.17
2018-03-28T10:59:36.586Z,10.20
2018-03-28T11:02:05.476Z,5.93
2018-03-28T11:04:34.353Z,6.40
2018-03-28T11:07:03.270Z,6.53
2018-03-28T11:09:32.158Z,7.43
2018-03-28T11:12:01.096Z,4.77
2018-03-28T11:14:29.976Z,6.63
2018-03-28T11:16:58.831Z,5.97
2018-03-28T11:19:27.688Z,6.93
2018-03-28T11:21:56.590Z,6.57
2018-03-28T11:24:26.335Z,5.37
2018-03-28T11:26:55.195Z,6.00
2018-03-28T11:29:24.086Z,6.73
2018-03-28T11:31:52.925Z,8.07
2018-03-28T11:34:21.868Z,7.43
2018-03-28T11:36:51.111Z,9.27
2018-03-28T11:39:19.965Z,8.33
2018-03-28T11:41:48.822Z,5.37
2018-03-28T11:44:18.570Z,7.40
2018-03-28T11:46:47.426Z,8.30
2018-03-28T11:49:16.334Z,6.70
2018-03-28T11:51:45.555Z,8.23
2018-03-28T11:54:14.430Z,8.37
2018-03-28T11:56:43.285Z,6.83
2018-03-28T11:59:12.179Z,6.70
2018-03-28T12:01:41.091Z,9.70
2018-03-28T12:04:10.319Z,14.03
2018-03-28T12:06:39.166Z,12.77
2018-03-28T12:09:08.097Z,16.23
2018-03-28T12:11:36.928Z,8.87
2018-03-28T12:14:07.050Z,11.00
2018-03-28T12:16:36.116Z,12.40
2018-03-28T12:19:05.878Z,7.83
2018-03-28T12:21:34.722Z,7.73
2018-03-28T12:24:03.630Z,8.70
2018-03-28T12:26:32.483Z,8.73
2018-03-28T12:29:01.353Z,11.50
2018-03-28T12:31:30.822Z,9.87
2018-03-28T12:33:59.659Z,9.37
2018-03-28T12:36:28.674Z,12.47
2018-03-28T12:38:57.582Z,12.97
2018-03-28T12:41:26.431Z,7.37
2018-03-28T12:43:55.278Z,8.50
2018-03-28T12:46:24.200Z,5.47
2018-03-28T12:48:53.059Z,8.17
2018-03-28T12:51:21.966Z,9.50
2018-03-28T12:53:51.045Z,12.80
2018-03-28T12:56:19.923Z,12.47
2018-03-28T12:58:48.944Z,8.03
2018-03-28T13:01:18.012Z,4.40
2018-03-28T13:03:46.877Z,12.00
2018-03-28T13:06:15.734Z,13.10
2018-03-28T13:08:45.318Z,9.80
2018-03-28T13:11:14.171Z,9.43
2018-03-28T13:13:43.049Z,11.80
2018-03-28T13:16:12.010Z,9.50
2018-03-28T13:18:40.874Z,12.43
2018-03-28T13:21:09.857Z,10.80
2018-03-28T13:23:38.703Z,8.27
2018-03-28T13:26:07.555Z,8.80
2018-03-28T13:28:38.504Z,21.87
2018-03-28T13:31:07.346Z,9.67
2018-03-28T13:33:36.225Z,8.00
2018-03-28T13:36:05.147Z,5.87
2018-03-28T13:38:34.005Z,19.20
2018-03-28T13:41:02.872Z,10.83
2018-03-28T13:43:31.767Z,8.63
2018-03-28T13:46:00.629Z,9.10
2018-03-28T13:48:29.498Z,9.50
2018-03-28T13:50:59.309Z,5.17
2018-03-28T13:53:28.191Z,10.77
2018-03-28T13:55:57.070Z,14.20
2018-03-28T13:58:26.217Z,11.17
2018-03-28T14:00:55.080Z,5.40
2018-03-28T14:03:23.938Z,3.13
2018-03-28T14:05:52.987Z,2.80
2018-03-28T14:08:21.831Z,3.43
2018-03-28T14:10:50.797Z,4.10
2018-03-28T14:13:22.013Z,3.73
2018-03-28T14:15:50.922Z,6.77
2018-03-28T14:18:19.775Z,7.17
2018-03-28T14:20:48.676Z,18.30
2018-03-28T14:23:17.534Z,12.37
2018-03-28T14:25:46.404Z,13.03
2018-03-28T14:28:15.287Z,11.47
2018-03-28T14:30:44.639Z,5.97
2018-03-28T14:33:13.571Z,6.63
2018-03-28T14:35:42.455Z,5.67
2018-03-28T14:38:11.532Z,1.57
2018-03-28T14:40:40.384Z,3.90
2018-03-28T14:43:09.255Z,3.77
2018-03-28T14:45:38.135Z,1.43
2018-03-28T14:48:06.997Z,0.90
2018-03-28T14:50:35.998Z,1.67
2018-03-28T14:53:04.853Z,1.83
2018-03-28T14:55:33.837Z,1.50
2018-03-28T14:58:02.750Z,1.00
2018-03-28T15:00:31.615Z,2.67
2018-03-28T15:03:00.463Z,2.63
2018-03-28T15:05:30.199Z,2.20
2018-03-28T15:07:59.052Z,2.30
2018-03-28T15:10:27.913Z,1.90
2018-03-28T15:12:57.040Z,1.10
2018-03-28T15:15:25.879Z,2.20
2018-03-28T15:17:54.755Z,2.10
2018-03-28T15:20:23.665Z,1.70
2018-03-28T15:22:52.512Z,2.27
2018-03-28T15:25:21.900Z,3.60
2018-03-28T15:27:50.756Z,5.13
2018-03-28T15:30:19.602Z,5.53
2018-03-28T15:32:49.325Z,5.63
2018-03-28T15:35:18.176Z,5.37
2018-03-28T15:37:47.033Z,2.97
2018-03-28T15:40:15.951Z,5.20
2018-03-28T15:42:44.799Z,2.47
2018-03-28T15:45:13.814Z,4.77
2018-03-28T15:47:43.178Z,1.77
2018-03-28T15:50:12.103Z,4.07
2018-03-28T15:52:40.963Z,4.40
2018-03-28T15:55:09.868Z,6.50
2018-03-28T15:57:38.721Z,1.50
2018-03-28T16:00:07.556Z,3.10
2018-03-28T16:02:36.611Z,1.30
2018-03-28T16:05:05.551Z,2.00
2018-03-28T16:07:34.411Z,1.93
2018-03-28T16:10:03.276Z,2.97
2018-03-28T16:12:35.468Z,1.97
2018-03-28T16:15:04.373Z,2.60
2018-03-28T16:17:33.222Z,1.30
2018-03-28T16:20:02.086Z,1.70
2018-03-28T16:22:30.975Z,2.20
2018-03-28T16:25:00.018Z,1.90
2018-03-28T16:27:28.906Z,1.83
2018-03-28T16:29:57.758Z,1.30
2018-03-28T16:32:26.619Z,1.60
2018-03-28T16:34:56.384Z,2.90
2018-03-28T16:37:25.353Z,1.60
2018-03-28T16:39:54.196Z,2.67
2018-03-28T16:42:23.155Z,2.30
2018-03-28T16:44:52.106Z,1.73
2018-03-28T16:47:20.968Z,2.07
2018-03-28T16:49:51.671Z,1.67
2018-03-28T16:52:20.659Z,1.87
2018-03-28T16:54:49.582Z,2.30
2018-03-28T16:57:18.551Z,1.40
2018-03-28T16:59:47.431Z,1.30
2018-03-28T17:02:16.275Z,1.33
2018-03-28T17:04:45.167Z,1.37
2018-03-28T17:07:14.032Z,1.70
2018-03-28T17:09:42.922Z,2.27
2018-03-28T17:12:11.779Z,2.43
2018-03-28T17:14:42.456Z,2.93
2018-03-28T17:17:11.298Z,3.40
2018-03-28T17:19:40.177Z,1.60
2018-03-28T17:22:09.051Z,1.70
2018-03-28T17:24:37.908Z,1.50
2018-03-28T17:27:07.102Z,1.23
2018-03-28T17:29:35.972Z,1.53
2018-03-28T17:32:04.818Z,2.10
2018-03-28T17:34:33.717Z,1.87
2018-03-28T17:37:02.575Z,1.90
2018-03-28T17:39:31.671Z,3.90
2018-03-28T17:42:00.516Z,2.63
2018-03-28T17:44:29.374Z,3.30
2018-03-28T17:46:58.300Z,2.57
2018-03-28T17:49:27.115Z,2.47
2018-03-28T17:51:55.991Z,7.67
2018-03-28T17:54:24.891Z,5.20
2018-03-28T17:56:53.754Z,12.53
2018-03-28T17:59:22.670Z,6.17
2018-03-28T18:01:51.697Z,5.97
2018-03-28T18:04:20.534Z,2.83
2018-03-28T18:06:49.430Z,2.20
2018-03-28T18:09:18.286Z,2.23
2018-03-28T18:11:47.138Z,2.97
2018-03-28T18:14:16.032Z,2.00
2018-03-28T18:16:45.252Z,2.20
2018-03-28T18:19:14.107Z,7.10
2018-03-28T18:21:43.211Z,4.00
2018-03-28T18:24:12.067Z,2.27
2018-03-28T18:26:40.937Z,3.00
2018-03-28T18:29:09.995Z,1.80
2018-03-28T18:31:39.080Z,2.70
2018-03-28T18:34:07.938Z,1.63
2018-03-28T18:36:36.914Z,1.97
2018-03-28T18:39:05.814Z,2.30
2018-03-28T18:41:34.667Z,1.93
2018-03-28T18:44:03.507Z,3.10
2018-03-28T18:46:33.459Z,3.67
2018-03-28T18:49:02.308Z,2.57
2018-03-28T18:51:31.284Z,1.87
2018-03-28T18:54:00.176Z,2.43
2018-03-28T18:56:29.036Z,2.20
2018-03-28T18:58:57.911Z,2.80
2018-03-28T19:01:26.814Z,2.67
2018-03-28T19:03:55.683Z,2.80
2018-03-28T19:06:24.542Z,2.93
2018-03-28T19:08:54.820Z,1.80
2018-03-28T19:11:23.679Z,2.13
2018-03-28T19:13:55.480Z,2.37
2018-03-28T19:16:24.350Z,3.13
2018-03-28T19:18:53.278Z,1.83
2018-03-28T19:21:22.236Z,3.00
2018-03-28T19:23:51.118Z,4.83
2018-03-28T19:26:19.948Z,3.50
2018-03-28T19:28:48.864Z,4.30
2018-03-28T19:31:17.704Z,4.03
2018-03-28T19:33:46.562Z,4.70
2018-03-28T19:36:16.362Z,3.97
2018-03-28T19:38:45.243Z,4.33
2018-03-28T19:41:14.103Z,5.03
2018-03-28T19:43:43.008Z,5.23
2018-03-28T19:46:11.856Z,4.87
2018-03-28T19:48:40.708Z,4.77
2018-03-28T19:51:09.632Z,3.40
2018-03-28T19:53:38.504Z,2.87
2018-03-28T19:56:07.380Z,2.70
2018-03-28T19:58:36.264Z,1.93
2018-03-28T20:01:05.143Z,2.83
2018-03-28T20:03:34.043Z,2.53
2018-03-28T20:06:02.904Z,1.70
2018-03-28T20:08:31.759Z,2.20
2018-03-28T20:11:00.885Z,3.73
2018-03-28T20:13:29.922Z,1.77
2018-03-28T20:15:59.282Z,1.33
2018-03-28T20:18:28.231Z,1.10
2018-03-28T20:20:57.105Z,1.50
2018-03-28T20:23:25.976Z,1.40
2018-03-28T20:25:55.045Z,2.20
2018-03-28T20:28:23.893Z,1.23
2018-03-28T20:30:52.751Z,1.40
2018-03-28T20:33:22.006Z,0.97
2018-03-28T20:35:50.857Z,1.57
2018-03-28T20:38:20.040Z,1.40
2018-03-28T20:40:48.907Z,1.10
2018-03-28T20:43:17.758Z,1.47
2018-03-28T20:45:46.615Z,1.00
2018-03-28T20:48:15.535Z,0.97
2018-03-28T20:50:44.396Z,1.43
2018-03-28T20:53:13.560Z,3.63
2018-03-28T20:55:42.574Z,1.23
2018-03-28T20:58:13.076Z,1.67
2018-03-28T21:00:42.021Z,1.50
2018-03-28T21:03:10.839Z,0.93
2018-03-28T21:05:39.756Z,1.80
2018-03-28T21:08:08.588Z,2.50
2018-03-28T21:10:37.499Z,2.23
2018-03-28T21:13:06.346Z,1.97
2018-03-28T21:15:35.208Z,2.07
2018-03-28T21:18:05.256Z,1.43
2018-03-28T21:20:34.144Z,2.43
2018-03-28T21:23:02.991Z,2.10
2018-03-28T21:25:31.908Z,2.27
2018-03-28T21:28:00.760Z,3.30
2018-03-28T21:30:29.623Z,2.33
2018-03-28T21:32:59.299Z,1.93
2018-03-28T21:35:28.314Z,2.20
2018-03-28T21:37:57.160Z,1.93
2018-03-28T21:40:26.059Z,2.20
2018-03-28T21:42:55.015Z,2.33
2018-03-28T21:45:23.863Z,2.00
2018-03-28T21:47:52.774Z,1.80
2018-03-28T21:50:21.630Z,1.80
2018-03-28T21:52:50.623Z,3.97
2018-03-28T21:55:20.134Z,3.17
2018-03-28T21:57:49.002Z,2.17
2018-03-28T22:00:17.846Z,2.27
2018-03-28T22:02:46.738Z,2.50
2018-03-28T22:05:15.591Z,2.63
2018-03-28T22:07:44.452Z,2.47
2018-03-28T22:10:13.342Z,3.63
2018-03-28T22:12:42.185Z,3.23
2018-03-28T22:15:11.035Z,3.13
2018-03-28T22:17:39.938Z,2.60
2018-03-28T22:20:09.478Z,2.83
2018-03-28T22:22:38.349Z,3.27
2018-03-28T22:25:07.235Z,2.77
2018-03-28T22:27:36.094Z,2.97
2018-03-28T22:30:05.059Z,2.87
2018-03-28T22:32:33.857Z,2.63
2018-03-28T22:35:02.719Z,2.93
2018-03-28T22:37:32.319Z,2.87
2018-03-28T22:40:01.182Z,2.90
2018-03-28T22:42:30.032Z,3.20
2018-03-28T22:44:58.939Z,3.23
2018-03-28T22:47:27.794Z,3.33
2018-03-28T22:49:56.651Z,3.83
2018-03-28T22:52:25.868Z,3.23
2018-03-28T22:54:54.715Z,2.93
2018-03-28T22:57:23.556Z,2.90
2018-03-28T22:59:53.354Z,3.13
2018-03-28T23:02:22.290Z,3.03
2018-03-28T23:04:51.147Z,3.27
2018-03-28T23:07:20.033Z,4.07
2018-03-28T23:09:48.882Z,2.83
2018-03-28T23:12:17.787Z,3.33
2018-03-28T23:14:46.649Z,2.80
2018-03-28T23:17:15.619Z,3.07
2018-03-28T23:19:45.214Z,3.20
2018-03-28T23:22:21.152Z,3.30
2018-03-28T23:24:50.040Z,2.77
2018-03-28T23:27:18.878Z,2.70
2018-03-28T23:29:47.854Z,2.40
2018-03-28T23:32:16.935Z,2.50
2018-03-28T23:34:45.792Z,2.90
2018-03-28T23:37:14.645Z,2.67
2018-03-28T23:39:44.199Z,2.80
2018-03-28T23:42:13.050Z,3.77
2018-03-28T23:44:41.898Z,3.67
2018-03-28T23:47:10.821Z,3.00
2018-03-28T23:49:39.677Z,3.07
2018-03-28T23:52:08.530Z,3.10
2018-03-28T23:54:37.430Z,3.03
2018-03-28T23:57:06.283Z,4.43
2018-03-28T23:59:35.126Z,3.40
